BOH weather

Bournemouth Airport
Bournemouth, England, United Kingdom

Public forecast

Using degrees Celsius for public forecast. Weather courtesy of forecast.io.

METAR (pilot weather report)

Retrieved 2019/03/26 23:50 UTC (13 minutes ago):

EGHH 262350Z 29002KT CAVOK 03/02 Q1034

TAF (pilot weather forecast)

Forecast is more than 12 hours old.

Retrieved 2013/12/01 21:21 UTC (5 years ago):

TAF TAF EGHH 010016Z 3021/0106 CNL